Collinsville, VA (24078)

4:30 PM EDT on July 30, 2015 (GMT -0400)
Patrick Henry Mall Area | | Change Station
CLOSE
Current Station
Personal Weather Station
Location: Martinsville, VA
Elevation: 1020 ft
Nearby Weather Stations

Elev 1020 ft 36.69 °N, 79.86 °W | Updated 45 seconds ago

Partly Cloudy
Partly Cloudy
91.1 °F
Feels Like 102 °F
N
0.0
Wind Variable Wind from WNW
Gusts 6.0 mph

Today
High -- | Low -- °F
--% Chance of Precip.
Yesterday
High -- | Low -- °F
Precip. -- in
6:23 AM 8:28 PM
Waxing Gibbous, 99% visible
Pressure 29.93 in
Visibility 10.0 miles
Clouds Clear
Heat Index 102 °F
Dew Point 75 °F
Humidity 59%
Rainfall 0.00 in
Snow Depth Not available.
UV 7 out of 12
Pollen 5.30 out of 12
Air Quality Not available.
Flu Activity Not available.
METAR KMTV 302015Z AUTO 31005G15KT 10SM CLR 35/20 A2993 RMK AO2 T03490196

More Conditions Fewer Conditions

Pressure 29.93 in
Visibility 10.0 miles
Clouds Clear
Heat Index 102 °F
Dew Point 75 °F
Humidity 59%
Rainfall 0.00 in
Snow Depth Not available.
UV 7 out of 12
Pollen 5.30 out of 12
Air Quality Not available.
Flu Activity Not available.
METAR KMTV 302015Z AUTO 31005G15KT 10SM CLR 35/20 A2993 RMK AO2 T03490196

More Conditions Fewer Conditions

10-Day Weather Forecast

×

Almanac

Astronomy

Jul. 30, 2015 Rise Set
Actual Time
Civil Twilight
Nautical Twilight
Astronomical Twilight
Moon
Length of Visible Light
Length of Day
Tomorrow will be .
, % of the Moon is Illuminated

Today's Extremes

State Highs State Lows

Community

WunderPhotos

Upload Photos

1,842,498 photos uploaded!

WunderBlogs® & News

Nearby

Air Quality

  Air Quality AQ Index Pollutant
Not available.

Snow Depth

Station Depth Elevation

Earthquake Activity

City Distance Mag. Time & Date
Minimum magnitude displayed is 2.5.

Coastal Water Temperatures

Place Temperature

Stations

Nearby Weather Stations

Station Location Temp. Windchill Dew Point Humidity Wind Precip. Elev Updated Type